sensor_id;sensor_type;location;lat;lon;timestamp;temperature;humidity
19734;DHT22;10018;51.230;7.860;2023-02-15T00:00:21;1.20;99.90
19734;DHT22;10018;51.230;7.860;2023-02-15T00:02:47;1.20;99.90
19734;DHT22;10018;51.230;7.860;2023-02-15T00:05:12;1.20;99.90
19734;DHT22;10018;51.230;7.860;2023-02-15T00:07:38;1.20;99.90
19734;DHT22;10018;51.230;7.860;2023-02-15T00:10:07;1.20;99.90
19734;DHT22;10018;51.230;7.860;2023-02-15T00:12:33;1.20;99.90
19734;DHT22;10018;51.230;7.860;2023-02-15T00:14:58;1.20;99.90
19734;DHT22;10018;51.230;7.860;2023-02-15T00:17:26;1.20;99.90
19734;DHT22;10018;51.230;7.860;2023-02-15T00:19:52;1.20;99.90
19734;DHT22;10018;51.230;7.860;2023-02-15T00:22:17;1.30;99.90
19734;DHT22;10018;51.230;7.860;2023-02-15T00:24:45;1.30;99.90
19734;DHT22;10018;51.230;7.860;2023-02-15T00:27:10;1.30;99.90
19734;DHT22;10018;51.230;7.860;2023-02-15T00:29:36;1.30;99.90
19734;DHT22;10018;51.230;7.860;2023-02-15T00:32:02;1.30;99.90
19734;DHT22;10018;51.230;7.860;2023-02-15T00:34:28;1.20;99.90
19734;DHT22;10018;51.230;7.860;2023-02-15T00:36:53;1.20;99.90
19734;DHT22;10018;51.230;7.860;2023-02-15T00:39:19;1.20;99.90
19734;DHT22;10018;51.230;7.860;2023-02-15T00:41:46;1.10;99.90
19734;DHT22;10018;51.230;7.860;2023-02-15T00:44:12;1.10;99.90
19734;DHT22;10018;51.230;7.860;2023-02-15T00:46:41;1.10;99.90
19734;DHT22;10018;51.230;7.860;2023-02-15T00:49:07;1.10;99.90
19734;DHT22;10018;51.230;7.860;2023-02-15T00:51:35;1.10;99.90
19734;DHT22;10018;51.230;7.860;2023-02-15T00:54:01;1.10;99.90
19734;DHT22;10018;51.230;7.860;2023-02-15T00:56:27;1.00;99.90
19734;DHT22;10018;51.230;7.860;2023-02-15T00:58:53;1.00;99.90
19734;DHT22;10018;51.230;7.860;2023-02-15T01:01:20;1.00;99.90
19734;DHT22;10018;51.230;7.860;2023-02-15T01:03:48;1.00;99.90
19734;DHT22;10018;51.230;7.860;2023-02-15T01:06:18;1.00;99.90
19734;DHT22;10018;51.230;7.860;2023-02-15T01:08:44;1.00;99.90
19734;DHT22;10018;51.230;7.860;2023-02-15T01:11:16;1.00;99.90
19734;DHT22;10018;51.230;7.860;2023-02-15T01:13:51;1.00;99.90
19734;DHT22;10018;51.230;7.860;2023-02-15T01:16:18;0.90;99.90
19734;DHT22;10018;51.230;7.860;2023-02-15T01:18:43;0.90;99.90
19734;DHT22;10018;51.230;7.860;2023-02-15T01:21:14;0.80;99.90
19734;DHT22;10018;51.230;7.860;2023-02-15T01:23:41;0.80;99.90
19734;DHT22;10018;51.230;7.860;2023-02-15T01:26:07;0.70;99.90
19734;DHT22;10018;51.230;7.860;2023-02-15T01:28:33;0.70;99.90
19734;DHT22;10018;51.230;7.860;2023-02-15T01:30:59;0.70;99.90
19734;DHT22;10018;51.230;7.860;2023-02-15T01:33:29;0.70;99.90
19734;DHT22;10018;51.230;7.860;2023-02-15T01:35:58;0.70;99.90
19734;DHT22;10018;51.230;7.860;2023-02-15T01:38:24;0.60;99.90
19734;DHT22;10018;51.230;7.860;2023-02-15T01:40:53;0.60;99.90
19734;DHT22;10018;51.230;7.860;2023-02-15T01:43:19;0.60;99.90
19734;DHT22;10018;51.230;7.860;2023-02-15T01:45:47;0.60;99.90
19734;DHT22;10018;51.230;7.860;2023-02-15T01:48:24;0.60;99.90
19734;DHT22;10018;51.230;7.860;2023-02-15T01:50:56;0.60;99.90
19734;DHT22;10018;51.230;7.860;2023-02-15T01:53:28;0.60;99.90
19734;DHT22;10018;51.230;7.860;2023-02-15T01:56:22;0.60;99.90
19734;DHT22;10018;51.230;7.860;2023-02-15T01:58:49;0.50;99.90
19734;DHT22;10018;51.230;7.860;2023-02-15T02:01:16;0.60;99.90
19734;DHT22;10018;51.230;7.860;2023-02-15T02:06:20;0.60;99.90
19734;DHT22;10018;51.230;7.860;2023-02-15T02:08:46;0.50;99.90
19734;DHT22;10018;51.230;7.860;2023-02-15T02:11:13;0.50;99.90
19734;DHT22;10018;51.230;7.860;2023-02-15T02:13:40;0.60;99.90
19734;DHT22;10018;51.230;7.860;2023-02-15T02:19:10;0.50;99.90
19734;DHT22;10018;51.230;7.860;2023-02-15T02:43:38;0.30;99.90
19734;DHT22;10018;51.230;7.860;2023-02-15T02:46:40;0.40;99.90
19734;DHT22;10018;51.230;7.860;2023-02-15T02:49:09;0.40;99.90
19734;DHT22;10018;51.230;7.860;2023-02-15T02:51:35;0.40;99.90
19734;DHT22;10018;51.230;7.860;2023-02-15T02:54:05;0.40;99.90
19734;DHT22;10018;51.230;7.860;2023-02-15T02:56:43;0.30;99.90
19734;DHT22;10018;51.230;7.860;2023-02-15T02:59:15;0.30;99.90
19734;DHT22;10018;51.230;7.860;2023-02-15T03:01:53;0.40;99.90
19734;DHT22;10018;51.230;7.860;2023-02-15T03:04:26;0.40;99.90
19734;DHT22;10018;51.230;7.860;2023-02-15T03:06:57;0.40;99.90
19734;DHT22;10018;51.230;7.860;2023-02-15T03:09:34;0.40;99.90
19734;DHT22;10018;51.230;7.860;2023-02-15T03:12:26;0.40;99.90
19734;DHT22;10018;51.230;7.860;2023-02-15T03:17:28;0.40;99.90
19734;DHT22;10018;51.230;7.860;2023-02-15T03:19:58;0.40;99.90
19734;DHT22;10018;51.230;7.860;2023-02-15T03:22:40;0.30;99.90
19734;DHT22;10018;51.230;7.860;2023-02-15T03:25:12;0.30;99.90
19734;DHT22;10018;51.230;7.860;2023-02-15T03:27:46;0.30;99.90
19734;DHT22;10018;51.230;7.860;2023-02-15T03:30:13;0.30;99.90
19734;DHT22;10018;51.230;7.860;2023-02-15T03:32:41;0.30;99.90
19734;DHT22;10018;51.230;7.860;2023-02-15T03:35:08;0.30;99.90
19734;DHT22;10018;51.230;7.860;2023-02-15T03:37:44;0.20;99.90
19734;DHT22;10018;51.230;7.860;2023-02-15T03:40:29;0.20;99.90
19734;DHT22;10018;51.230;7.860;2023-02-15T03:43:23;0.20;99.90
19734;DHT22;10018;51.230;7.860;2023-02-15T03:45:56;0.10;99.90
19734;DHT22;10018;51.230;7.860;2023-02-15T03:48:39;0.10;99.90
19734;DHT22;10018;51.230;7.860;2023-02-15T03:51:14;0.10;99.90
19734;DHT22;10018;51.230;7.860;2023-02-15T03:54:06;0.00;99.90
19734;DHT22;10018;51.230;7.860;2023-02-15T03:56:37;0.00;99.90
19734;DHT22;10018;51.230;7.860;2023-02-15T03:59:03;0.00;99.90
19734;DHT22;10018;51.230;7.860;2023-02-15T04:02:15;0.00;99.90
19734;DHT22;10018;51.230;7.860;2023-02-15T04:04:47;-0.10;99.90
19734;DHT22;10018;51.230;7.860;2023-02-15T04:07:15;-0.10;99.90
19734;DHT22;10018;51.230;7.860;2023-02-15T04:09:40;-0.20;99.90
19734;DHT22;10018;51.230;7.860;2023-02-15T04:12:24;-0.20;99.90
19734;DHT22;10018;51.230;7.860;2023-02-15T04:14:50;-0.20;99.90
19734;DHT22;10018;51.230;7.860;2023-02-15T04:17:37;-0.20;99.90
19734;DHT22;10018;51.230;7.860;2023-02-15T04:20:03;-0.20;99.90
19734;DHT22;10018;51.230;7.860;2023-02-15T04:22:47;-0.20;99.90
19734;DHT22;10018;51.230;7.860;2023-02-15T04:25:31;-0.20;99.90
19734;DHT22;10018;51.230;7.860;2023-02-15T04:27:56;-0.20;99.90
19734;DHT22;10018;51.230;7.860;2023-02-15T04:30:24;-0.20;99.90
19734;DHT22;10018;51.230;7.860;2023-02-15T04:32:50;-0.20;99.90
19734;DHT22;10018;51.230;7.860;2023-02-15T04:35:15;-0.20;99.90
19734;DHT22;10018;51.230;7.860;2023-02-15T04:37:42;-0.20;99.90
19734;DHT22;10018;51.230;7.860;2023-02-15T04:40:10;-0.20;99.90
19734;DHT22;10018;51.230;7.860;2023-02-15T04:42:36;-0.20;99.90
19734;DHT22;10018;51.230;7.860;2023-02-15T04:45:02;-0.20;99.90
19734;DHT22;10018;51.230;7.860;2023-02-15T04:47:28;-0.20;99.90
19734;DHT22;10018;51.230;7.860;2023-02-15T04:49:53;-0.20;99.90
19734;DHT22;10018;51.230;7.860;2023-02-15T04:52:19;-0.20;99.90
19734;DHT22;10018;51.230;7.860;2023-02-15T04:54:45;-0.30;99.90
19734;DHT22;10018;51.230;7.860;2023-02-15T04:57:10;-0.30;99.90
19734;DHT22;10018;51.230;7.860;2023-02-15T04:59:36;-0.30;99.90
19734;DHT22;10018;51.230;7.860;2023-02-15T05:02:02;-0.30;99.90
19734;DHT22;10018;51.230;7.860;2023-02-15T05:04:27;-0.30;99.90
19734;DHT22;10018;51.230;7.860;2023-02-15T05:06:53;-0.30;99.90
19734;DHT22;10018;51.230;7.860;2023-02-15T05:09:18;-0.30;99.90
19734;DHT22;10018;51.230;7.860;2023-02-15T05:11:46;-0.30;99.90
19734;DHT22;10018;51.230;7.860;2023-02-15T05:14:12;-0.40;99.90
19734;DHT22;10018;51.230;7.860;2023-02-15T05:16:37;-0.40;99.90
19734;DHT22;10018;51.230;7.860;2023-02-15T05:19:03;-0.40;99.90
19734;DHT22;10018;51.230;7.860;2023-02-15T05:21:29;-0.40;99.90
19734;DHT22;10018;51.230;7.860;2023-02-15T05:23:54;-0.40;99.90
19734;DHT22;10018;51.230;7.860;2023-02-15T05:26:22;-0.40;99.90
19734;DHT22;10018;51.230;7.860;2023-02-15T05:29:08;-0.40;99.90
19734;DHT22;10018;51.230;7.860;2023-02-15T05:31:36;-0.40;99.90
19734;DHT22;10018;51.230;7.860;2023-02-15T05:34:02;-0.40;99.90
19734;DHT22;10018;51.230;7.860;2023-02-15T05:36:27;-0.50;99.90
19734;DHT22;10018;51.230;7.860;2023-02-15T05:38:54;-0.50;99.90
19734;DHT22;10018;51.230;7.860;2023-02-15T05:41:20;-0.40;99.90
19734;DHT22;10018;51.230;7.860;2023-02-15T05:43:45;-0.50;99.90
19734;DHT22;10018;51.230;7.860;2023-02-15T05:46:14;-0.50;99.90
19734;DHT22;10018;51.230;7.860;2023-02-15T05:48:39;-0.60;99.90
19734;DHT22;10018;51.230;7.860;2023-02-15T05:51:10;-0.50;99.90
19734;DHT22;10018;51.230;7.860;2023-02-15T05:53:40;-0.60;99.90
19734;DHT22;10018;51.230;7.860;2023-02-15T05:56:11;-0.60;99.90
19734;DHT22;10018;51.230;7.860;2023-02-15T05:58:42;-0.60;99.90
19734;DHT22;10018;51.230;7.860;2023-02-15T06:01:18;-0.60;99.90
19734;DHT22;10018;51.230;7.860;2023-02-15T06:03:48;-0.60;99.90
19734;DHT22;10018;51.230;7.860;2023-02-15T06:06:14;-0.60;99.90
19734;DHT22;10018;51.230;7.860;2023-02-15T06:08:40;-0.60;99.90
19734;DHT22;10018;51.230;7.860;2023-02-15T06:11:06;-0.70;99.90
19734;DHT22;10018;51.230;7.860;2023-02-15T06:13:32;-0.60;99.90
19734;DHT22;10018;51.230;7.860;2023-02-15T06:15:58;-0.60;99.90
19734;DHT22;10018;51.230;7.860;2023-02-15T06:18:23;-0.60;99.90
19734;DHT22;10018;51.230;7.860;2023-02-15T06:20:49;-0.60;99.90
19734;DHT22;10018;51.230;7.860;2023-02-15T06:23:15;-0.50;99.90
19734;DHT22;10018;51.230;7.860;2023-02-15T06:25:45;-0.50;99.90
19734;DHT22;10018;51.230;7.860;2023-02-15T06:28:10;-0.60;99.90
19734;DHT22;10018;51.230;7.860;2023-02-15T06:30:38;-0.60;99.90
19734;DHT22;10018;51.230;7.860;2023-02-15T06:33:04;-0.50;99.90
19734;DHT22;10018;51.230;7.860;2023-02-15T06:35:30;-0.60;99.90
19734;DHT22;10018;51.230;7.860;2023-02-15T06:37:55;-0.60;99.90
19734;DHT22;10018;51.230;7.860;2023-02-15T06:40:21;-0.60;99.90
19734;DHT22;10018;51.230;7.860;2023-02-15T06:42:46;-0.60;99.90
19734;DHT22;10018;51.230;7.860;2023-02-15T06:45:12;-0.60;99.90
19734;DHT22;10018;51.230;7.860;2023-02-15T06:47:38;-0.60;99.90
19734;DHT22;10018;51.230;7.860;2023-02-15T06:50:05;-0.60;99.90
19734;DHT22;10018;51.230;7.860;2023-02-15T06:52:33;-0.60;99.90
19734;DHT22;10018;51.230;7.860;2023-02-15T06:54:59;-0.60;99.90
19734;DHT22;10018;51.230;7.860;2023-02-15T06:57:25;-0.60;99.90
19734;DHT22;10018;51.230;7.860;2023-02-15T06:59:50;-0.60;99.90
19734;DHT22;10018;51.230;7.860;2023-02-15T07:02:16;-0.60;99.90
19734;DHT22;10018;51.230;7.860;2023-02-15T07:04:41;-0.60;99.90
19734;DHT22;10018;51.230;7.860;2023-02-15T07:07:11;-0.60;99.90
19734;DHT22;10018;51.230;7.860;2023-02-15T07:09:39;-0.60;99.90
19734;DHT22;10018;51.230;7.860;2023-02-15T07:12:07;-0.60;99.90
19734;DHT22;10018;51.230;7.860;2023-02-15T07:14:51;-0.50;99.90
19734;DHT22;10018;51.230;7.860;2023-02-15T07:17:17;-0.50;99.90
19734;DHT22;10018;51.230;7.860;2023-02-15T07:19:43;-0.50;99.90
19734;DHT22;10018;51.230;7.860;2023-02-15T07:22:09;-0.50;99.90
19734;DHT22;10018;51.230;7.860;2023-02-15T07:24:34;-0.40;99.90
19734;DHT22;10018;51.230;7.860;2023-02-15T07:27:00;-0.40;99.90
19734;DHT22;10018;51.230;7.860;2023-02-15T07:29:25;-0.40;99.90
19734;DHT22;10018;51.230;7.860;2023-02-15T07:31:51;-0.40;99.90
19734;DHT22;10018;51.230;7.860;2023-02-15T07:34:16;-0.40;99.90
19734;DHT22;10018;51.230;7.860;2023-02-15T07:36:42;-0.30;99.90
19734;DHT22;10018;51.230;7.860;2023-02-15T07:39:10;-0.30;99.90
19734;DHT22;10018;51.230;7.860;2023-02-15T07:41:38;-0.30;99.90
19734;DHT22;10018;51.230;7.860;2023-02-15T07:44:03;-0.30;99.90
19734;DHT22;10018;51.230;7.860;2023-02-15T07:46:29;-0.20;99.90
19734;DHT22;10018;51.230;7.860;2023-02-15T07:48:55;-0.20;99.90
19734;DHT22;10018;51.230;7.860;2023-02-15T07:51:21;-0.20;99.90
19734;DHT22;10018;51.230;7.860;2023-02-15T07:53:46;-0.10;99.90
19734;DHT22;10018;51.230;7.860;2023-02-15T07:56:13;-0.10;99.90
19734;DHT22;10018;51.230;7.860;2023-02-15T07:58:41;-0.10;99.90
19734;DHT22;10018;51.230;7.860;2023-02-15T08:01:18;0.00;99.90
19734;DHT22;10018;51.230;7.860;2023-02-15T08:03:44;0.10;99.90
19734;DHT22;10018;51.230;7.860;2023-02-15T08:06:09;0.10;99.90
19734;DHT22;10018;51.230;7.860;2023-02-15T08:08:37;0.10;99.90
19734;DHT22;10018;51.230;7.860;2023-02-15T08:14:01;0.30;99.90
19734;DHT22;10018;51.230;7.860;2023-02-15T08:19:06;0.40;99.90
19734;DHT22;10018;51.230;7.860;2023-02-15T08:21:32;0.50;99.90
19734;DHT22;10018;51.230;7.860;2023-02-15T08:23:59;0.60;99.90
19734;DHT22;10018;51.230;7.860;2023-02-15T08:26:25;0.60;99.90
19734;DHT22;10018;51.230;7.860;2023-02-15T08:28:52;0.70;99.90
19734;DHT22;10018;51.230;7.860;2023-02-15T08:31:18;0.80;99.90
19734;DHT22;10018;51.230;7.860;2023-02-15T08:33:45;0.90;99.90
19734;DHT22;10018;51.230;7.860;2023-02-15T08:36:16;1.00;99.90
19734;DHT22;10018;51.230;7.860;2023-02-15T08:38:43;1.10;99.90
19734;DHT22;10018;51.230;7.860;2023-02-15T08:41:20;1.20;99.90
19734;DHT22;10018;51.230;7.860;2023-02-15T08:43:47;1.20;99.90
19734;DHT22;10018;51.230;7.860;2023-02-15T08:46:14;1.30;99.90
19734;DHT22;10018;51.230;7.860;2023-02-15T08:48:41;1.40;99.90
19734;DHT22;10018;51.230;7.860;2023-02-15T08:51:12;1.50;99.90
19734;DHT22;10018;51.230;7.860;2023-02-15T08:53:40;1.60;99.90
19734;DHT22;10018;51.230;7.860;2023-02-15T08:56:06;1.70;99.90
19734;DHT22;10018;51.230;7.860;2023-02-15T08:58:35;1.70;99.90
19734;DHT22;10018;51.230;7.860;2023-02-15T09:01:01;1.90;99.90
19734;DHT22;10018;51.230;7.860;2023-02-15T09:03:29;1.90;99.90
19734;DHT22;10018;51.230;7.860;2023-02-15T09:05:59;2.00;99.90
19734;DHT22;10018;51.230;7.860;2023-02-15T09:08:25;2.10;99.90
19734;DHT22;10018;51.230;7.860;2023-02-15T09:10:51;2.30;99.90
19734;DHT22;10018;51.230;7.860;2023-02-15T09:13:16;2.40;99.90
19734;DHT22;10018;51.230;7.860;2023-02-15T09:15:42;2.50;99.90
19734;DHT22;10018;51.230;7.860;2023-02-15T09:18:07;2.70;99.90
19734;DHT22;10018;51.230;7.860;2023-02-15T09:20:36;2.80;99.90
19734;DHT22;10018;51.230;7.860;2023-02-15T09:23:02;2.90;99.90
19734;DHT22;10018;51.230;7.860;2023-02-15T09:25:30;3.00;99.90
19734;DHT22;10018;51.230;7.860;2023-02-15T09:27:55;3.10;99.90
19734;DHT22;10018;51.230;7.860;2023-02-15T09:30:21;3.20;99.90
19734;DHT22;10018;51.230;7.860;2023-02-15T09:32:47;3.30;99.90
19734;DHT22;10018;51.230;7.860;2023-02-15T09:35:13;3.40;99.90
19734;DHT22;10018;51.230;7.860;2023-02-15T09:37:39;3.50;99.90
19734;DHT22;10018;51.230;7.860;2023-02-15T09:40:05;3.60;99.90
19734;DHT22;10018;51.230;7.860;2023-02-15T09:45:36;3.90;99.90
19734;DHT22;10018;51.230;7.860;2023-02-15T10:12:46;5.10;99.90
19734;DHT22;10018;51.230;7.860;2023-02-15T10:26:25;5.80;99.90
19734;DHT22;10018;51.230;7.860;2023-02-15T10:28:59;6.00;99.90
19734;DHT22;10018;51.230;7.860;2023-02-15T10:31:44;6.20;99.90
19734;DHT22;10018;51.230;7.860;2023-02-15T10:34:19;6.30;99.90
19734;DHT22;10018;51.230;7.860;2023-02-15T10:37:14;6.40;99.90
19734;DHT22;10018;51.230;7.860;2023-02-15T10:39:52;6.50;99.90
19734;DHT22;10018;51.230;7.860;2023-02-15T10:42:45;6.70;99.90
19734;DHT22;10018;51.230;7.860;2023-02-15T10:45:25;6.80;99.90
19734;DHT22;10018;51.230;7.860;2023-02-15T10:50:49;7.10;99.90
19734;DHT22;10018;51.230;7.860;2023-02-15T10:53:29;7.40;99.90
19734;DHT22;10018;51.230;7.860;2023-02-15T10:56:12;7.50;99.90
19734;DHT22;10018;51.230;7.860;2023-02-15T11:06:46;8.00;99.90
19734;DHT22;10018;51.230;7.860;2023-02-15T11:09:14;8.10;99.90
19734;DHT22;10018;51.230;7.860;2023-02-15T11:11:45;8.10;99.90
19734;DHT22;10018;51.230;7.860;2023-02-15T11:14:30;8.20;99.90
19734;DHT22;10018;51.230;7.860;2023-02-15T11:17:04;8.30;99.90
19734;DHT22;10018;51.230;7.860;2023-02-15T11:22:29;8.50;99.90
19734;DHT22;10018;51.230;7.860;2023-02-15T11:24:57;8.60;99.90
19734;DHT22;10018;51.230;7.860;2023-02-15T11:27:32;8.70;99.90
19734;DHT22;10018;51.230;7.860;2023-02-15T11:40:28;9.30;99.90
19734;DHT22;10018;51.230;7.860;2023-02-15T11:43:00;9.40;99.90
19734;DHT22;10018;51.230;7.860;2023-02-15T11:45:33;9.50;99.90
19734;DHT22;10018;51.230;7.860;2023-02-15T11:48:00;9.60;99.90
19734;DHT22;10018;51.230;7.860;2023-02-15T11:50:31;9.70;99.90
19734;DHT22;10018;51.230;7.860;2023-02-15T11:53:18;9.80;99.90
19734;DHT22;10018;51.230;7.860;2023-02-15T11:55:48;9.90;99.90
19734;DHT22;10018;51.230;7.860;2023-02-15T12:00:50;10.00;99.90
19734;DHT22;10018;51.230;7.860;2023-02-15T12:03:49;10.20;99.90
19734;DHT22;10018;51.230;7.860;2023-02-15T12:06:23;10.20;99.90
19734;DHT22;10018;51.230;7.860;2023-02-15T12:09:17;10.30;99.90
19734;DHT22;10018;51.230;7.860;2023-02-15T12:11:39;10.40;99.90
19734;DHT22;10018;51.230;7.860;2023-02-15T12:14:08;10.50;99.90
19734;DHT22;10018;51.230;7.860;2023-02-15T12:16:54;10.60;99.90
19734;DHT22;10018;51.230;7.860;2023-02-15T12:19:38;10.70;99.90
19734;DHT22;10018;51.230;7.860;2023-02-15T12:22:10;10.80;99.90
19734;DHT22;10018;51.230;7.860;2023-02-15T12:24:47;10.90;99.90
19734;DHT22;10018;51.230;7.860;2023-02-15T12:27:22;11.10;99.90
19734;DHT22;10018;51.230;7.860;2023-02-15T12:30:34;11.30;99.90
19734;DHT22;10018;51.230;7.860;2023-02-15T12:33:21;11.40;99.90
19734;DHT22;10018;51.230;7.860;2023-02-15T12:35:56;11.60;99.90
19734;DHT22;10018;51.230;7.860;2023-02-15T12:38:24;11.80;99.90
19734;DHT22;10018;51.230;7.860;2023-02-15T12:41:05;12.00;99.90
19734;DHT22;10018;51.230;7.860;2023-02-15T12:44:04;12.10;99.90
19734;DHT22;10018;51.230;7.860;2023-02-15T12:46:29;12.30;99.90
19734;DHT22;10018;51.230;7.860;2023-02-15T12:49:17;12.50;99.90
19734;DHT22;10018;51.230;7.860;2023-02-15T12:51:54;12.60;99.90
19734;DHT22;10018;51.230;7.860;2023-02-15T12:54:41;12.70;99.90
19734;DHT22;10018;51.230;7.860;2023-02-15T12:57:27;12.90;99.90
19734;DHT22;10018;51.230;7.860;2023-02-15T12:59:56;13.10;99.90
19734;DHT22;10018;51.230;7.860;2023-02-15T13:05:30;13.10;99.90
19734;DHT22;10018;51.230;7.860;2023-02-15T13:08:18;13.10;99.90
19734;DHT22;10018;51.230;7.860;2023-02-15T13:11:29;13.30;99.90
19734;DHT22;10018;51.230;7.860;2023-02-15T13:13:54;13.30;99.90
19734;DHT22;10018;51.230;7.860;2023-02-15T13:19:02;13.40;99.90
19734;DHT22;10018;51.230;7.860;2023-02-15T13:21:36;13.60;99.90
19734;DHT22;10018;51.230;7.860;2023-02-15T13:24:13;13.70;99.90
19734;DHT22;10018;51.230;7.860;2023-02-15T13:26:42;13.90;99.90
19734;DHT22;10018;51.230;7.860;2023-02-15T13:29:30;14.00;99.90
19734;DHT22;10018;51.230;7.860;2023-02-15T13:32:12;14.10;99.90
19734;DHT22;10018;51.230;7.860;2023-02-15T13:34:40;14.00;99.90
19734;DHT22;10018;51.230;7.860;2023-02-15T13:37:19;14.00;99.90
19734;DHT22;10018;51.230;7.860;2023-02-15T13:42:47;14.10;99.90
19734;DHT22;10018;51.230;7.860;2023-02-15T13:56:40;15.70;99.90
19734;DHT22;10018;51.230;7.860;2023-02-15T14:05:10;17.80;99.90
19734;DHT22;10018;51.230;7.860;2023-02-15T14:07:53;18.10;99.90
19734;DHT22;10018;51.230;7.860;2023-02-15T14:18:55;19.00;99.90
19734;DHT22;10018;51.230;7.860;2023-02-15T14:21:32;19.20;99.90
19734;DHT22;10018;51.230;7.860;2023-02-15T14:27:04;19.60;99.90
19734;DHT22;10018;51.230;7.860;2023-02-15T14:32:41;21.40;99.90
19734;DHT22;10018;51.230;7.860;2023-02-15T14:35:19;21.60;99.90
19734;DHT22;10018;51.230;7.860;2023-02-15T14:37:58;21.50;99.90
19734;DHT22;10018;51.230;7.860;2023-02-15T14:43:56;21.70;99.90
19734;DHT22;10018;51.230;7.860;2023-02-15T14:59:54;21.50;98.40
19734;DHT22;10018;51.230;7.860;2023-02-15T15:05:16;22.80;97.10
19734;DHT22;10018;51.230;7.860;2023-02-15T15:07:49;22.60;95.90
19734;DHT22;10018;51.230;7.860;2023-02-15T15:12:50;21.00;98.10
19734;DHT22;10018;51.230;7.860;2023-02-15T15:17:58;19.80;98.70
19734;DHT22;10018;51.230;7.860;2023-02-15T15:20:51;19.20;99.90
19734;DHT22;10018;51.230;7.860;2023-02-15T15:26:21;18.00;99.90
19734;DHT22;10018;51.230;7.860;2023-02-15T15:47:58;12.90;99.90
19734;DHT22;10018;51.230;7.860;2023-02-15T15:50:26;12.60;99.90
19734;DHT22;10018;51.230;7.860;2023-02-15T15:52:57;12.20;99.90
19734;DHT22;10018;51.230;7.860;2023-02-15T15:55:26;11.90;99.90
19734;DHT22;10018;51.230;7.860;2023-02-15T15:58:14;11.60;99.90
19734;DHT22;10018;51.230;7.860;2023-02-15T16:00:47;11.30;99.90
19734;DHT22;10018;51.230;7.860;2023-02-15T16:03:16;11.20;99.90
19734;DHT22;10018;51.230;7.860;2023-02-15T16:05:45;11.20;99.90
19734;DHT22;10018;51.230;7.860;2023-02-15T16:08:11;11.20;99.90
19734;DHT22;10018;51.230;7.860;2023-02-15T16:10:40;11.00;99.90
19734;DHT22;10018;51.230;7.860;2023-02-15T16:13:06;11.00;99.90
19734;DHT22;10018;51.230;7.860;2023-02-15T16:15:36;10.80;99.90
19734;DHT22;10018;51.230;7.860;2023-02-15T16:18:21;10.70;99.90
19734;DHT22;10018;51.230;7.860;2023-02-15T16:21:01;10.50;99.90
19734;DHT22;10018;51.230;7.860;2023-02-15T16:26:50;10.30;99.90
19734;DHT22;10018;51.230;7.860;2023-02-15T16:29:17;10.10;99.90
19734;DHT22;10018;51.230;7.860;2023-02-15T16:31:43;10.00;99.90
19734;DHT22;10018;51.230;7.860;2023-02-15T16:34:18;9.90;99.90
19734;DHT22;10018;51.230;7.860;2023-02-15T16:36:43;9.70;99.90
19734;DHT22;10018;51.230;7.860;2023-02-15T16:39:19;9.60;99.90
19734;DHT22;10018;51.230;7.860;2023-02-15T16:41:47;9.40;99.90
19734;DHT22;10018;51.230;7.860;2023-02-15T16:44:19;9.40;99.90
19734;DHT22;10018;51.230;7.860;2023-02-15T16:46:48;9.50;99.90
19734;DHT22;10018;51.230;7.860;2023-02-15T16:49:23;9.60;99.90
19734;DHT22;10018;51.230;7.860;2023-02-15T16:52:04;9.50;99.90
19734;DHT22;10018;51.230;7.860;2023-02-15T16:54:32;9.50;99.90
19734;DHT22;10018;51.230;7.860;2023-02-15T16:57:01;9.40;99.90
19734;DHT22;10018;51.230;7.860;2023-02-15T16:59:40;9.40;99.90
19734;DHT22;10018;51.230;7.860;2023-02-15T17:02:20;9.40;99.90
19734;DHT22;10018;51.230;7.860;2023-02-15T17:05:04;9.40;99.90
19734;DHT22;10018;51.230;7.860;2023-02-15T17:07:32;9.30;99.90
19734;DHT22;10018;51.230;7.860;2023-02-15T17:09:58;9.20;99.90
19734;DHT22;10018;51.230;7.860;2023-02-15T17:12:47;9.00;99.90
19734;DHT22;10018;51.230;7.860;2023-02-15T17:20:42;8.70;99.90
19734;DHT22;10018;51.230;7.860;2023-02-15T17:23:32;8.60;99.90
19734;DHT22;10018;51.230;7.860;2023-02-15T17:26:00;8.60;99.90
19734;DHT22;10018;51.230;7.860;2023-02-15T17:28:29;8.50;99.90
19734;DHT22;10018;51.230;7.860;2023-02-15T17:30:56;8.50;99.90
19734;DHT22;10018;51.230;7.860;2023-02-15T17:36:20;8.30;99.90
19734;DHT22;10018;51.230;7.860;2023-02-15T17:39:20;8.30;99.90
19734;DHT22;10018;51.230;7.860;2023-02-15T17:41:47;8.20;99.90
19734;DHT22;10018;51.230;7.860;2023-02-15T17:44:13;8.10;99.90
19734;DHT22;10018;51.230;7.860;2023-02-15T17:46:41;8.10;99.90
19734;DHT22;10018;51.230;7.860;2023-02-15T17:49:18;8.00;99.90
19734;DHT22;10018;51.230;7.860;2023-02-15T17:51:47;8.00;99.90
19734;DHT22;10018;51.230;7.860;2023-02-15T17:54:13;8.00;99.90
19734;DHT22;10018;51.230;7.860;2023-02-15T17:56:57;7.90;99.90
19734;DHT22;10018;51.230;7.860;2023-02-15T17:59:27;7.80;99.90
19734;DHT22;10018;51.230;7.860;2023-02-15T18:01:53;7.70;99.90
19734;DHT22;10018;51.230;7.860;2023-02-15T18:04:39;7.70;99.90
19734;DHT22;10018;51.230;7.860;2023-02-15T18:07:23;7.60;99.90
19734;DHT22;10018;51.230;7.860;2023-02-15T18:10:16;7.60;99.90
19734;DHT22;10018;51.230;7.860;2023-02-15T18:13:00;7.60;99.90
19734;DHT22;10018;51.230;7.860;2023-02-15T18:15:26;7.60;99.90
19734;DHT22;10018;51.230;7.860;2023-02-15T18:17:52;7.60;99.90
19734;DHT22;10018;51.230;7.860;2023-02-15T18:20:31;7.50;99.90
19734;DHT22;10018;51.230;7.860;2023-02-15T18:22:57;7.50;99.90
19734;DHT22;10018;51.230;7.860;2023-02-15T18:25:23;7.60;99.90
19734;DHT22;10018;51.230;7.860;2023-02-15T18:27:50;7.60;99.90
19734;DHT22;10018;51.230;7.860;2023-02-15T18:30:18;7.60;99.90
19734;DHT22;10018;51.230;7.860;2023-02-15T18:32:45;7.50;99.90
19734;DHT22;10018;51.230;7.860;2023-02-15T18:35:16;7.40;99.90
19734;DHT22;10018;51.230;7.860;2023-02-15T18:37:44;7.30;99.90
19734;DHT22;10018;51.230;7.860;2023-02-15T18:40:18;7.30;99.90
19734;DHT22;10018;51.230;7.860;2023-02-15T18:42:44;7.30;99.90
19734;DHT22;10018;51.230;7.860;2023-02-15T18:45:19;7.20;99.90
19734;DHT22;10018;51.230;7.860;2023-02-15T18:47:46;7.30;99.90
19734;DHT22;10018;51.230;7.860;2023-02-15T18:50:14;7.30;99.90
19734;DHT22;10018;51.230;7.860;2023-02-15T18:52:40;7.20;99.90
19734;DHT22;10018;51.230;7.860;2023-02-15T18:55:22;7.30;99.90
19734;DHT22;10018;51.230;7.860;2023-02-15T18:57:50;7.20;99.90
19734;DHT22;10018;51.230;7.860;2023-02-15T19:00:17;7.20;99.90
19734;DHT22;10018;51.230;7.860;2023-02-15T19:02:43;7.10;99.90
19734;DHT22;10018;51.230;7.860;2023-02-15T19:05:09;7.10;99.90
19734;DHT22;10018;51.230;7.860;2023-02-15T19:07:36;7.00;99.90
19734;DHT22;10018;51.230;7.860;2023-02-15T19:10:04;6.90;99.90
19734;DHT22;10018;51.230;7.860;2023-02-15T19:12:30;6.90;99.90
19734;DHT22;10018;51.230;7.860;2023-02-15T19:14:56;6.70;99.90
19734;DHT22;10018;51.230;7.860;2023-02-15T19:17:23;6.60;99.90
19734;DHT22;10018;51.230;7.860;2023-02-15T19:19:50;6.50;99.90
19734;DHT22;10018;51.230;7.860;2023-02-15T19:22:21;6.50;99.90
19734;DHT22;10018;51.230;7.860;2023-02-15T19:24:47;6.40;99.90